createdAt,value
2022-10-06T00:00:22.292Z,78.75
2022-10-06T00:01:22.328Z,78.94
2022-10-06T00:02:22.256Z,78.95
2022-10-06T00:03:22.253Z,78.80
2022-10-06T00:04:22.233Z,78.81
2022-10-06T00:05:22.253Z,78.75
2022-10-06T00:06:22.189Z,78.89
2022-10-06T00:07:22.203Z,77.44
2022-10-06T00:08:22.188Z,77.55
2022-10-06T00:09:22.157Z,77.71
2022-10-06T00:10:22.193Z,77.76
2022-10-06T00:11:22.150Z,77.81
2022-10-06T00:12:22.148Z,77.59
2022-10-06T00:13:22.124Z,77.48
2022-10-06T00:14:22.125Z,77.22
2022-10-06T00:15:22.134Z,76.87
2022-10-06T00:16:22.230Z,76.97
2022-10-06T00:17:22.118Z,77.09
2022-10-06T00:18:22.106Z,76.70
2022-10-06T00:19:22.063Z,76.84
2022-10-06T00:20:22.061Z,76.92
2022-10-06T00:21:22.065Z,77.09
2022-10-06T00:22:22.024Z,76.46
2022-10-06T00:23:22.089Z,76.47
2022-10-06T00:24:22.004Z,76.07
2022-10-06T00:25:21.989Z,75.84
2022-10-06T00:26:22.012Z,75.56
2022-10-06T00:27:22.004Z,75.09
2022-10-06T00:28:22.033Z,75.44
2022-10-06T00:29:21.928Z,75.64
2022-10-06T00:30:21.954Z,75.55
2022-10-06T00:31:21.985Z,75.35
2022-10-06T00:32:21.898Z,75.42
2022-10-06T00:33:21.906Z,74.90
2022-10-06T00:34:21.894Z,75.42
2022-10-06T00:35:22.681Z,75.59
2022-10-06T00:36:21.918Z,75.72
2022-10-06T00:37:21.866Z,75.77
2022-10-06T00:38:21.826Z,75.76
2022-10-06T00:39:21.807Z,75.90
2022-10-06T00:40:21.851Z,75.95
2022-10-06T00:41:21.840Z,75.96
2022-10-06T00:42:21.809Z,75.72
2022-10-06T00:43:21.792Z,75.94
2022-10-06T00:44:21.777Z,75.94
2022-10-06T00:45:21.743Z,75.84
2022-10-06T00:46:21.889Z,75.81
2022-10-06T00:47:21.719Z,75.61
2022-10-06T00:48:21.739Z,75.86
2022-10-06T00:49:21.698Z,75.86
2022-10-06T00:50:21.718Z,75.82
2022-10-06T00:51:21.707Z,75.77
2022-10-06T00:52:21.670Z,75.61
2022-10-06T00:53:21.672Z,75.75
2022-10-06T00:54:21.651Z,75.75
2022-10-06T00:55:21.630Z,75.40
2022-10-06T00:56:21.655Z,75.60
2022-10-06T00:57:21.602Z,75.51
2022-10-06T00:58:21.604Z,75.86
2022-10-06T00:59:21.591Z,75.81
2022-10-06T01:00:21.571Z,75.94
2022-10-06T01:01:21.612Z,76.10
2022-10-06T01:02:21.659Z,76.34
2022-10-06T01:03:21.559Z,76.17
2022-10-06T01:04:21.519Z,76.01
2022-10-06T01:05:21.548Z,75.76
2022-10-06T01:06:21.508Z,75.67
2022-10-06T01:07:21.502Z,75.92
2022-10-06T01:08:21.515Z,76.02
2022-10-06T01:09:21.479Z,76.43
2022-10-06T01:10:21.484Z,76.87
2022-10-06T01:11:21.447Z,77.18
2022-10-06T01:12:21.471Z,77.40
2022-10-06T01:13:21.439Z,77.45
2022-10-06T01:14:21.424Z,77.59
2022-10-06T01:15:21.419Z,77.86
2022-10-06T01:16:21.458Z,77.81
2022-10-06T01:17:21.381Z,78.14
2022-10-06T01:18:21.394Z,78.18
2022-10-06T01:19:21.400Z,78.16
2022-10-06T01:20:21.364Z,77.87
2022-10-06T01:21:21.339Z,77.46
2022-10-06T01:22:21.365Z,76.69
2022-10-06T01:23:21.352Z,76.15
2022-10-06T01:24:21.313Z,75.88
2022-10-06T01:25:21.302Z,75.08
2022-10-06T01:26:21.280Z,74.91
2022-10-06T01:27:21.264Z,75.13
2022-10-06T01:28:21.275Z,75.15
2022-10-06T01:29:21.274Z,75.23
2022-10-06T01:30:21.247Z,74.15
2022-10-06T01:31:21.297Z,74.39
2022-10-06T01:32:21.216Z,74.30
2022-10-06T01:33:21.228Z,74.00
2022-10-06T01:34:21.184Z,73.94
2022-10-06T01:35:21.178Z,73.60
2022-10-06T01:36:21.158Z,73.06
2022-10-06T01:37:21.160Z,72.52
2022-10-06T01:38:21.183Z,72.67
2022-10-06T01:39:21.141Z,72.70
2022-10-06T01:40:21.149Z,72.66
2022-10-06T01:41:21.114Z,72.83
2022-10-06T01:42:21.101Z,72.45
2022-10-06T01:43:21.110Z,71.95
2022-10-06T01:44:21.098Z,71.87
2022-10-06T01:45:21.077Z,72.04
2022-10-06T01:46:21.119Z,71.99
2022-10-06T01:47:21.039Z,71.53
2022-10-06T01:48:21.036Z,71.28
2022-10-06T01:49:21.043Z,71.22
2022-10-06T01:50:21.032Z,71.70
2022-10-06T01:51:21.032Z,71.28
2022-10-06T01:52:20.976Z,71.23
2022-10-06T01:53:20.978Z,71.18
2022-10-06T01:54:20.986Z,71.27
2022-10-06T01:55:20.949Z,71.29
2022-10-06T01:56:20.938Z,71.62
2022-10-06T01:57:20.929Z,71.26
2022-10-06T01:58:20.959Z,71.45
2022-10-06T01:59:20.919Z,71.44
2022-10-06T02:00:20.926Z,71.06
2022-10-06T02:01:20.947Z,71.28
2022-10-06T02:02:20.888Z,71.18
2022-10-06T02:03:20.860Z,71.15
2022-10-06T02:04:20.910Z,71.00
2022-10-06T02:05:20.867Z,70.42
2022-10-06T02:06:20.879Z,70.29
2022-10-06T02:07:20.820Z,70.31
2022-10-06T02:08:20.800Z,70.18
2022-10-06T02:09:20.788Z,70.13
2022-10-06T02:10:20.810Z,70.31
2022-10-06T02:11:20.772Z,70.20
2022-10-06T02:12:20.768Z,69.98
2022-10-06T02:13:20.742Z,70.28
2022-10-06T02:14:20.753Z,70.33
2022-10-06T02:15:20.738Z,70.40
2022-10-06T02:16:20.829Z,70.35
2022-10-06T02:17:20.714Z,70.36
2022-10-06T02:18:20.691Z,70.27
2022-10-06T02:19:20.680Z,70.50
2022-10-06T02:20:20.670Z,70.82
2022-10-06T02:21:20.692Z,70.71
2022-10-06T02:22:20.663Z,70.51
2022-10-06T02:23:20.658Z,70.72
2022-10-06T02:24:20.657Z,70.58
2022-10-06T02:25:20.604Z,70.61
2022-10-06T02:26:20.611Z,70.73
2022-10-06T02:27:20.610Z,70.91
2022-10-06T02:28:20.624Z,71.07
2022-10-06T02:29:20.578Z,71.28
2022-10-06T02:30:20.565Z,71.00
2022-10-06T02:31:20.578Z,71.19
2022-10-06T02:32:20.555Z,71.16
2022-10-06T02:33:20.536Z,71.17
2022-10-06T02:34:20.537Z,71.04
2022-10-06T02:35:20.505Z,71.05
2022-10-06T02:36:20.484Z,71.04
2022-10-06T02:37:20.515Z,71.10
2022-10-06T02:38:20.455Z,71.12
2022-10-06T02:39:20.465Z,71.10
2022-10-06T02:40:20.433Z,71.18
2022-10-06T02:41:20.445Z,71.40
2022-10-06T02:42:20.417Z,71.46
2022-10-06T02:43:20.413Z,71.49
2022-10-06T02:44:20.408Z,71.90
2022-10-06T02:45:20.384Z,72.14
2022-10-06T02:46:20.432Z,72.21
2022-10-06T02:47:20.375Z,72.24
2022-10-06T02:48:20.358Z,72.39
2022-10-06T02:49:20.387Z,72.39
2022-10-06T02:50:20.327Z,72.42
2022-10-06T02:51:20.327Z,72.61
2022-10-06T02:52:20.335Z,72.83
2022-10-06T02:53:20.314Z,72.96
2022-10-06T02:54:20.300Z,73.03
2022-10-06T02:55:20.273Z,73.04
2022-10-06T02:56:20.268Z,73.12
2022-10-06T02:57:20.260Z,73.17
2022-10-06T02:58:20.248Z,73.23
2022-10-06T02:59:20.269Z,73.30
2022-10-06T03:00:20.236Z,73.47
2022-10-06T03:01:20.256Z,73.67
2022-10-06T03:02:20.340Z,73.56
2022-10-06T03:03:20.170Z,73.73
2022-10-06T03:04:20.185Z,73.84
2022-10-06T03:05:20.257Z,74.04
2022-10-06T03:06:20.139Z,74.31
2022-10-06T03:07:20.138Z,74.35
2022-10-06T03:08:20.138Z,74.38
2022-10-06T03:09:20.117Z,74.35
2022-10-06T03:10:20.098Z,74.48
2022-10-06T03:11:20.078Z,74.26
2022-10-06T03:12:20.069Z,74.29
2022-10-06T03:13:20.069Z,74.27
2022-10-06T03:14:22.037Z,74.24
2022-10-06T03:15:20.048Z,74.46
2022-10-06T03:16:20.112Z,74.39
2022-10-06T03:17:20.020Z,74.13
2022-10-06T03:18:20.001Z,74.12
2022-10-06T03:19:20.027Z,74.26
2022-10-06T03:20:19.973Z,74.24
2022-10-06T03:21:19.969Z,74.41
2022-10-06T03:22:19.963Z,74.27
2022-10-06T03:23:19.946Z,74.24
2022-10-06T03:24:19.952Z,74.26
2022-10-06T03:25:19.917Z,74.20
2022-10-06T03:26:19.909Z,73.92
2022-10-06T03:27:19.939Z,73.99
2022-10-06T03:28:19.935Z,74.20
2022-10-06T03:29:19.911Z,74.32
2022-10-06T03:30:19.881Z,74.44
2022-10-06T03:31:19.915Z,74.40
2022-10-06T03:32:19.829Z,74.51
2022-10-06T03:33:19.839Z,74.81
2022-10-06T03:34:19.838Z,74.81
2022-10-06T03:35:19.811Z,74.89
2022-10-06T03:36:19.792Z,75.05
2022-10-06T03:37:19.780Z,75.08
2022-10-06T03:38:19.773Z,74.58
2022-10-06T03:39:19.790Z,74.17
2022-10-06T03:40:19.742Z,74.15
2022-10-06T03:41:19.731Z,72.99
2022-10-06T03:42:19.722Z,73.64
2022-10-06T03:43:19.713Z,73.78
2022-10-06T03:44:19.722Z,73.87
2022-10-06T03:45:19.685Z,74.03
2022-10-06T03:46:19.742Z,74.20
2022-10-06T03:47:19.664Z,74.23
2022-10-06T03:48:19.654Z,74.41
2022-10-06T03:49:19.674Z,74.76
2022-10-06T03:50:19.643Z,74.77
2022-10-06T03:51:19.632Z,74.88
2022-10-06T03:52:25.039Z,74.86
2022-10-06T03:53:20.613Z,74.91
2022-10-06T03:54:19.593Z,74.86
2022-10-06T03:55:19.574Z,75.01
2022-10-06T03:56:19.568Z,75.04
2022-10-06T03:57:19.554Z,75.06
2022-10-06T03:58:19.556Z,75.14
2022-10-06T03:59:19.611Z,75.35
2022-10-06T04:00:19.526Z,75.50
2022-10-06T04:01:23.618Z,75.37
2022-10-06T04:02:20.523Z,75.25
2022-10-06T04:03:19.487Z,75.31
2022-10-06T04:04:19.475Z,75.32
2022-10-06T04:05:19.485Z,75.34
2022-10-06T04:06:19.456Z,75.55
2022-10-06T04:07:19.443Z,75.76
2022-10-06T04:08:19.418Z,75.88
2022-10-06T04:09:19.443Z,75.95
2022-10-06T04:10:19.433Z,76.04
2022-10-06T04:11:19.396Z,76.34
2022-10-06T04:12:19.374Z,76.38
2022-10-06T04:13:19.385Z,76.44
2022-10-06T04:14:19.471Z,76.47
2022-10-06T04:15:19.355Z,76.58
2022-10-06T04:16:19.406Z,77.05
2022-10-06T04:17:19.329Z,77.14
2022-10-06T04:18:19.305Z,77.19
2022-10-06T04:19:19.307Z,77.33
2022-10-06T04:20:19.315Z,77.29
2022-10-06T04:21:19.266Z,77.62
2022-10-06T04:22:19.266Z,77.80
2022-10-06T04:23:19.262Z,77.76
2022-10-06T04:24:19.237Z,77.67
2022-10-06T04:25:19.262Z,77.65
2022-10-06T04:26:19.219Z,77.68
2022-10-06T04:27:19.208Z,77.80
2022-10-06T04:28:19.234Z,77.95
2022-10-06T04:29:19.192Z,78.09
2022-10-06T04:30:19.180Z,78.28
2022-10-06T04:31:19.246Z,78.47
2022-10-06T04:32:19.155Z,78.46
2022-10-06T04:33:19.146Z,78.58
2022-10-06T04:34:19.144Z,78.57
2022-10-06T04:35:19.116Z,78.66
2022-10-06T04:36:19.130Z,78.74
2022-10-06T04:37:19.121Z,78.74
2022-10-06T04:38:19.089Z,78.79
2022-10-06T04:39:19.082Z,78.88
2022-10-06T04:40:19.062Z,78.91
2022-10-06T04:41:19.059Z,79.26
2022-10-06T04:42:19.063Z,79.39
2022-10-06T04:43:19.028Z,79.31
2022-10-06T04:44:19.025Z,79.22
2022-10-06T04:45:19.006Z,79.13
2022-10-06T04:46:41.408Z,79.13
2022-10-06T04:47:20.017Z,79.14
2022-10-06T04:48:18.971Z,79.11
2022-10-06T04:49:20.548Z,79.17
2022-10-06T04:50:18.932Z,79.13
2022-10-06T04:51:18.921Z,79.12
2022-10-06T04:52:18.934Z,79.12
2022-10-06T04:53:18.900Z,79.12
2022-10-06T04:54:18.915Z,79.30
2022-10-06T04:55:18.887Z,79.31
2022-10-06T04:56:18.865Z,79.44
2022-10-06T04:57:18.863Z,79.81
2022-10-06T04:58:18.855Z,79.81
2022-10-06T04:59:18.831Z,79.73
2022-10-06T05:00:18.817Z,79.70
2022-10-06T05:01:18.894Z,79.72
2022-10-06T05:02:18.822Z,79.71
2022-10-06T05:03:18.783Z,79.72
2022-10-06T05:04:18.790Z,79.85
2022-10-06T05:05:18.762Z,79.86
2022-10-06T05:06:18.753Z,79.86
2022-10-06T05:07:18.735Z,79.86
2022-10-06T05:08:18.722Z,79.88
2022-10-06T05:09:18.742Z,79.97
2022-10-06T05:10:18.709Z,79.96
2022-10-06T05:11:22.474Z,79.92
2022-10-06T05:12:19.678Z,79.89
2022-10-06T05:13:18.674Z,79.92
2022-10-06T05:14:18.652Z,79.93
2022-10-06T05:15:18.673Z,79.91
2022-10-06T05:16:18.694Z,80.09
2022-10-06T05:17:18.630Z,80.10
2022-10-06T05:18:18.616Z,80.18
2022-10-06T05:19:18.612Z,80.32
2022-10-06T05:20:18.603Z,80.31
2022-10-06T05:21:18.584Z,80.29
2022-10-06T05:22:18.569Z,80.18
2022-10-06T05:23:18.560Z,80.24
2022-10-06T05:24:18.548Z,80.27
2022-10-06T05:25:18.545Z,80.52
2022-10-06T05:26:18.552Z,80.57
2022-10-06T05:27:18.533Z,80.54
2022-10-06T05:28:18.524Z,80.58
2022-10-06T05:29:18.495Z,80.66
2022-10-06T05:30:18.476Z,80.80
2022-10-06T05:31:18.525Z,80.94
2022-10-06T05:32:18.473Z,80.94
2022-10-06T05:33:18.443Z,81.17
2022-10-06T05:34:18.435Z,81.23
2022-10-06T05:35:18.420Z,81.27
2022-10-06T05:36:18.441Z,81.23
2022-10-06T05:37:18.419Z,81.22
2022-10-06T05:38:18.387Z,81.21
2022-10-06T05:39:18.378Z,81.27
2022-10-06T05:40:18.378Z,81.35
2022-10-06T05:41:18.349Z,81.45
2022-10-06T05:42:18.357Z,81.53
2022-10-06T05:43:18.334Z,81.66
2022-10-06T05:44:18.315Z,81.70
2022-10-06T05:45:18.307Z,81.70
2022-10-06T05:46:18.323Z,81.83
2022-10-06T05:47:18.303Z,81.81
2022-10-06T05:48:18.277Z,81.78
2022-10-06T05:49:18.262Z,81.93
2022-10-06T05:50:19.540Z,82.05
2022-10-06T05:51:18.245Z,81.97
2022-10-06T05:52:18.225Z,82.01
2022-10-06T05:53:18.237Z,82.05
2022-10-06T05:54:18.196Z,82.73
2022-10-06T05:55:18.195Z,83.02
2022-10-06T05:56:18.179Z,83.15
2022-10-06T05:57:18.175Z,83.91
2022-10-06T05:58:18.679Z,84.06
2022-10-06T05:59:18.168Z,84.39
2022-10-06T06:00:18.136Z,84.61
2022-10-06T06:01:18.177Z,84.74
2022-10-06T06:02:18.222Z,84.82
2022-10-06T06:03:18.104Z,84.88
2022-10-06T06:04:18.096Z,84.86
2022-10-06T06:05:18.090Z,84.86
2022-10-06T06:06:18.068Z,84.90
2022-10-06T06:07:18.056Z,84.88
2022-10-06T06:08:18.049Z,84.86
2022-10-06T06:09:18.065Z,84.86
2022-10-06T06:10:18.028Z,84.83
2022-10-06T06:11:18.010Z,84.81
2022-10-06T06:12:17.996Z,84.76
2022-10-06T06:13:17.988Z,84.71
2022-10-06T06:14:17.991Z,84.67
2022-10-06T06:15:17.962Z,84.62
2022-10-06T06:16:17.996Z,84.56
2022-10-06T06:17:17.950Z,84.48
2022-10-06T06:18:17.932Z,84.36
2022-10-06T06:19:17.940Z,84.18
2022-10-06T06:20:17.918Z,84.06
2022-10-06T06:21:17.901Z,83.98
2022-10-06T06:22:17.889Z,83.99
2022-10-06T06:23:17.885Z,84.00
2022-10-06T06:24:17.849Z,84.00
2022-10-06T06:25:17.892Z,83.96
2022-10-06T06:26:17.829Z,83.81
2022-10-06T06:27:17.830Z,83.64
2022-10-06T06:28:17.840Z,83.52
2022-10-06T06:29:17.809Z,83.45
2022-10-06T06:30:17.812Z,83.43
2022-10-06T06:31:20.296Z,83.37
2022-10-06T06:32:17.759Z,83.33
2022-10-06T06:33:17.759Z,83.30
2022-10-06T06:34:17.740Z,83.31
2022-10-06T06:35:17.750Z,83.29
2022-10-06T06:36:17.733Z,83.31
2022-10-06T06:37:17.713Z,83.27
2022-10-06T06:38:17.696Z,83.23
2022-10-06T06:39:17.701Z,83.23
2022-10-06T06:40:17.735Z,83.01
2022-10-06T06:41:17.678Z,83.02
2022-10-06T06:42:17.662Z,82.97
2022-10-06T06:43:17.650Z,82.91
2022-10-06T06:44:17.630Z,82.84
2022-10-06T06:45:17.635Z,82.76
2022-10-06T06:46:17.729Z,82.66
2022-10-06T06:47:18.011Z,82.61
2022-10-06T06:48:17.605Z,82.71
2022-10-06T06:49:17.586Z,82.56
2022-10-06T06:50:17.593Z,82.37
2022-10-06T06:51:17.565Z,82.23
2022-10-06T06:52:17.540Z,81.94
2022-10-06T06:53:17.532Z,81.60
2022-10-06T06:54:17.530Z,81.29
2022-10-06T06:55:17.514Z,80.92
2022-10-06T06:56:17.536Z,80.70
2022-10-06T06:57:17.487Z,80.69
2022-10-06T06:58:17.492Z,80.50
2022-10-06T06:59:17.463Z,80.23
2022-10-06T07:00:17.455Z,79.78
2022-10-06T07:01:17.516Z,79.60
2022-10-06T07:02:17.512Z,79.38
2022-10-06T07:03:32.805Z,79.19
2022-10-06T07:04:18.413Z,78.59
2022-10-06T07:05:17.395Z,77.87
2022-10-06T07:06:17.392Z,77.36
2022-10-06T07:07:17.388Z,76.75
2022-10-06T07:08:17.363Z,75.98
2022-10-06T07:09:17.343Z,75.46
2022-10-06T07:10:17.344Z,75.00
2022-10-06T07:11:17.322Z,74.84
2022-10-06T07:12:17.336Z,74.51
2022-10-06T07:13:17.419Z,74.53
2022-10-06T07:14:17.296Z,74.50
2022-10-06T07:15:17.283Z,74.22
2022-10-06T07:16:17.299Z,73.92
2022-10-06T07:17:17.256Z,73.55
2022-10-06T07:18:17.274Z,73.43
2022-10-06T07:19:20.179Z,73.16
2022-10-06T07:20:18.225Z,72.99
2022-10-06T07:21:17.205Z,73.10
2022-10-06T07:22:17.193Z,73.19
2022-10-06T07:23:17.181Z,72.93
2022-10-06T07:24:17.197Z,72.84
2022-10-06T07:25:19.440Z,72.53
2022-10-06T07:26:17.155Z,72.53
2022-10-06T07:27:17.148Z,72.19
2022-10-06T07:28:17.198Z,71.72
2022-10-06T07:29:17.128Z,71.47
2022-10-06T07:30:17.123Z,71.64
2022-10-06T07:31:17.131Z,71.17
2022-10-06T07:32:17.097Z,70.86
2022-10-06T07:33:17.068Z,70.85
2022-10-06T07:34:17.069Z,71.17
2022-10-06T07:35:17.049Z,71.06
2022-10-06T07:36:17.057Z,70.70
2022-10-06T07:37:17.027Z,70.81
2022-10-06T07:38:17.007Z,70.71
2022-10-06T07:39:17.021Z,70.89
2022-10-06T07:40:17.013Z,70.91
2022-10-06T07:41:19.782Z,70.13
2022-10-06T07:42:16.972Z,70.31
2022-10-06T07:43:16.952Z,70.47
2022-10-06T07:44:16.950Z,70.59
2022-10-06T07:45:16.934Z,70.68
2022-10-06T07:46:17.002Z,70.83
2022-10-06T07:47:16.912Z,70.70
2022-10-06T07:48:16.902Z,70.82
2022-10-06T07:49:16.888Z,70.62
2022-10-06T07:50:16.879Z,70.81
2022-10-06T07:51:16.880Z,70.13
2022-10-06T07:52:16.860Z,69.77
2022-10-06T07:53:16.839Z,69.70
2022-10-06T07:54:16.836Z,69.69
2022-10-06T07:55:16.814Z,69.89
2022-10-06T07:56:16.831Z,70.38
2022-10-06T07:57:16.810Z,70.33
2022-10-06T07:58:16.804Z,70.13
2022-10-06T07:59:18.725Z,69.73
2022-10-06T08:00:16.877Z,69.26
2022-10-06T08:01:16.794Z,69.18
2022-10-06T08:02:16.782Z,69.49
2022-10-06T08:03:16.784Z,69.25
2022-10-06T08:04:16.709Z,68.39
2022-10-06T08:05:16.703Z,67.48
2022-10-06T08:06:16.686Z,67.07
2022-10-06T08:07:16.689Z,67.02
2022-10-06T08:08:16.683Z,66.61
2022-10-06T08:09:16.657Z,65.86
2022-10-06T08:10:16.652Z,65.13
2022-10-06T08:11:16.621Z,63.81
2022-10-06T08:12:16.650Z,63.86
2022-10-06T08:13:16.614Z,63.74
2022-10-06T08:14:16.614Z,63.48
2022-10-06T08:15:16.609Z,62.52
2022-10-06T08:16:16.631Z,62.47
2022-10-06T08:17:16.595Z,61.91
2022-10-06T08:18:33.696Z,61.37
2022-10-06T08:19:17.555Z,61.13
2022-10-06T08:20:16.574Z,60.82
2022-10-06T08:21:16.537Z,60.92
2022-10-06T08:22:16.552Z,60.76
2022-10-06T08:23:16.515Z,60.25
2022-10-06T08:24:16.496Z,60.01
2022-10-06T08:25:16.954Z,60.48
2022-10-06T08:26:16.466Z,58.99
2022-10-06T08:27:16.490Z,59.30
2022-10-06T08:28:16.511Z,59.76
2022-10-06T08:29:16.437Z,59.64
2022-10-06T08:30:16.465Z,58.49
2022-10-06T08:31:16.532Z,58.40
2022-10-06T08:32:16.426Z,59.11
2022-10-06T08:33:19.011Z,58.78
2022-10-06T08:34:16.429Z,58.63
2022-10-06T08:35:16.373Z,59.79
2022-10-06T08:36:16.359Z,58.83
2022-10-06T08:37:20.140Z,58.84
2022-10-06T08:38:16.376Z,59.14
2022-10-06T08:39:16.334Z,58.38
2022-10-06T08:40:16.328Z,57.50
2022-10-06T08:41:16.314Z,57.76
2022-10-06T08:42:16.297Z,57.72
2022-10-06T08:43:16.308Z,58.10
2022-10-06T08:44:16.286Z,59.52
2022-10-06T08:45:16.277Z,59.50
2022-10-06T08:46:18.739Z,59.20
2022-10-06T08:47:16.234Z,58.78
2022-10-06T08:48:16.240Z,58.79
2022-10-06T08:49:16.251Z,58.67
2022-10-06T08:50:16.208Z,57.73
2022-10-06T08:51:16.205Z,57.68
2022-10-06T08:52:16.182Z,57.81
2022-10-06T08:53:16.391Z,57.89
2022-10-06T08:54:16.180Z,57.78
2022-10-06T08:55:16.150Z,59.50
2022-10-06T08:56:16.158Z,58.92
2022-10-06T08:57:16.158Z,59.32
2022-10-06T08:58:16.137Z,59.04
2022-10-06T08:59:16.108Z,57.73
2022-10-06T09:00:19.610Z,57.15
2022-10-06T09:01:17.165Z,56.41
2022-10-06T09:02:16.095Z,56.66
2022-10-06T09:03:16.063Z,56.75
2022-10-06T09:04:16.068Z,56.93
2022-10-06T09:05:16.047Z,57.49
2022-10-06T09:06:16.024Z,57.41
2022-10-06T09:07:16.020Z,56.65
2022-10-06T09:08:16.015Z,56.08
2022-10-06T09:09:15.987Z,57.01
2022-10-06T09:10:16.025Z,58.08
2022-10-06T09:11:15.986Z,56.80
2022-10-06T09:12:15.955Z,56.62
2022-10-06T09:13:20.957Z,55.76
2022-10-06T09:14:16.975Z,55.83
2022-10-06T09:15:15.948Z,55.86
2022-10-06T09:16:15.963Z,55.50
2022-10-06T09:17:15.910Z,56.24
2022-10-06T09:18:15.887Z,56.29
2022-10-06T09:19:15.901Z,55.48
2022-10-06T09:20:15.912Z,55.19
2022-10-06T09:21:15.858Z,54.73
2022-10-06T09:22:15.864Z,56.21
2022-10-06T09:23:15.849Z,55.78
2022-10-06T09:24:15.857Z,55.42
2022-10-06T09:25:15.829Z,56.34
2022-10-06T09:26:15.817Z,55.75
2022-10-06T09:27:15.796Z,56.32
2022-10-06T09:28:15.947Z,55.63
2022-10-06T09:29:15.766Z,56.51
2022-10-06T09:30:15.767Z,56.39
2022-10-06T09:31:15.766Z,56.52
2022-10-06T09:32:15.741Z,56.58
2022-10-06T09:33:15.705Z,54.58
2022-10-06T09:34:15.720Z,54.51
2022-10-06T09:35:15.701Z,54.86
2022-10-06T09:36:15.711Z,54.63
2022-10-06T09:37:15.670Z,54.07
2022-10-06T09:38:15.668Z,55.01
2022-10-06T09:39:15.659Z,53.62
2022-10-06T09:40:15.688Z,53.34
2022-10-06T09:41:15.639Z,55.18
2022-10-06T09:42:15.620Z,54.41
2022-10-06T09:43:15.612Z,55.09
2022-10-06T09:44:15.620Z,54.29
2022-10-06T09:45:15.601Z,54.45
2022-10-06T09:46:15.635Z,53.46
2022-10-06T09:47:15.631Z,53.78
2022-10-06T09:48:15.556Z,54.20
2022-10-06T09:49:15.554Z,54.52
2022-10-06T09:50:15.547Z,55.18
2022-10-06T09:51:15.569Z,54.56
2022-10-06T09:52:15.511Z,55.01
2022-10-06T09:53:15.516Z,54.16
2022-10-06T09:54:15.497Z,54.61
2022-10-06T09:55:15.482Z,54.71
2022-10-06T09:56:15.481Z,54.28
2022-10-06T09:57:15.502Z,53.75
2022-10-06T09:58:15.473Z,54.44
2022-10-06T09:59:15.434Z,53.11
2022-10-06T10:00:15.420Z,53.65
2022-10-06T10:01:15.442Z,53.59
2022-10-06T10:02:15.400Z,55.38
2022-10-06T10:03:15.477Z,56.14
2022-10-06T10:04:22.421Z,56.01
2022-10-06T10:05:16.370Z,55.55
2022-10-06T10:06:15.355Z,55.50
2022-10-06T10:07:15.340Z,54.71
2022-10-06T10:08:15.370Z,55.06
2022-10-06T10:09:17.763Z,54.64
2022-10-06T10:10:16.324Z,53.39
2022-10-06T10:11:15.300Z,55.14
2022-10-06T10:12:15.288Z,56.15
2022-10-06T10:13:15.444Z,55.01
2022-10-06T10:14:15.401Z,55.88
2022-10-06T10:15:15.238Z,53.53
2022-10-06T10:16:15.294Z,53.94
2022-10-06T10:17:15.233Z,54.99
2022-10-06T10:18:15.237Z,54.60
2022-10-06T10:19:15.233Z,55.18
2022-10-06T10:20:15.263Z,54.00
2022-10-06T10:21:15.186Z,53.93
2022-10-06T10:22:15.168Z,55.32
2022-10-06T10:23:15.177Z,54.33
2022-10-06T10:24:15.173Z,54.95
2022-10-06T10:25:15.128Z,56.05
2022-10-06T10:26:15.145Z,56.49
2022-10-06T10:27:15.111Z,56.62
2022-10-06T10:28:15.137Z,56.09
2022-10-06T10:29:15.112Z,56.19
2022-10-06T10:30:15.107Z,54.89
2022-10-06T10:31:15.099Z,53.33
2022-10-06T10:32:15.059Z,53.68
2022-10-06T10:33:15.109Z,54.05
2022-10-06T10:34:24.022Z,55.36
2022-10-06T10:35:16.007Z,56.99
2022-10-06T10:36:15.009Z,55.68
2022-10-06T10:37:14.991Z,55.66
2022-10-06T10:38:15.114Z,55.86
2022-10-06T10:39:15.025Z,56.00
2022-10-06T10:40:14.953Z,54.96
2022-10-06T10:41:14.949Z,55.10
2022-10-06T10:42:14.927Z,55.99
2022-10-06T10:43:14.941Z,56.72
2022-10-06T10:44:14.949Z,55.59
2022-10-06T10:45:14.925Z,55.02
2022-10-06T10:46:14.927Z,55.97
2022-10-06T10:47:14.881Z,57.70
2022-10-06T10:48:14.864Z,57.14
2022-10-06T10:49:14.874Z,57.81
2022-10-06T10:50:14.856Z,57.46
2022-10-06T10:51:14.822Z,56.85
2022-10-06T10:52:14.842Z,55.95
2022-10-06T10:53:14.869Z,55.15
2022-10-06T10:54:14.814Z,53.12
2022-10-06T10:55:14.839Z,52.61
2022-10-06T10:56:14.776Z,53.00
2022-10-06T10:57:14.764Z,54.04
2022-10-06T10:58:14.753Z,54.10
2022-10-06T10:59:14.752Z,54.00
2022-10-06T11:00:14.756Z,55.18
2022-10-06T11:01:14.904Z,56.63
2022-10-06T11:02:14.735Z,56.71
2022-10-06T11:03:14.715Z,56.10
2022-10-06T11:04:14.697Z,56.13
2022-10-06T11:05:14.704Z,56.87
2022-10-06T11:06:14.655Z,57.62
2022-10-06T11:07:14.660Z,56.59
2022-10-06T11:08:14.640Z,55.82
2022-10-06T11:09:14.627Z,55.20
2022-10-06T11:10:14.636Z,54.98
2022-10-06T11:11:14.641Z,56.11
2022-10-06T11:12:14.621Z,55.15
2022-10-06T11:13:14.587Z,55.46
2022-10-06T11:14:14.777Z,54.83
2022-10-06T11:15:14.559Z,54.68
2022-10-06T11:16:14.653Z,54.51
2022-10-06T11:17:14.535Z,54.50
2022-10-06T11:18:17.159Z,55.36
2022-10-06T11:19:15.522Z,55.00
2022-10-06T11:20:14.505Z,54.62
2022-10-06T11:21:14.521Z,54.89
2022-10-06T11:22:14.488Z,54.81
2022-10-06T11:23:14.477Z,53.48
2022-10-06T11:24:14.467Z,53.21
2022-10-06T11:25:14.460Z,53.93
2022-10-06T11:26:14.466Z,54.04
2022-10-06T11:27:14.423Z,54.34
2022-10-06T11:28:14.608Z,54.48
2022-10-06T11:29:14.403Z,54.49
2022-10-06T11:30:14.388Z,54.91
2022-10-06T11:31:16.678Z,54.77
2022-10-06T11:32:15.377Z,55.67
2022-10-06T11:33:14.359Z,55.49
2022-10-06T11:34:14.353Z,55.45
2022-10-06T11:35:14.340Z,54.51
2022-10-06T11:36:14.455Z,53.10
2022-10-06T11:37:14.334Z,53.07
2022-10-06T11:38:14.302Z,53.10
2022-10-06T11:39:14.289Z,53.09
2022-10-06T11:40:14.273Z,52.29
2022-10-06T11:41:14.277Z,51.76
2022-10-06T11:42:14.285Z,52.51
2022-10-06T11:43:14.230Z,52.49
2022-10-06T11:44:14.222Z,51.71
2022-10-06T11:45:14.225Z,52.05
2022-10-06T11:46:14.237Z,52.51
2022-10-06T11:47:14.210Z,51.91
2022-10-06T11:48:14.173Z,52.48
2022-10-06T11:49:14.162Z,52.90
2022-10-06T11:50:14.171Z,52.50
2022-10-06T11:51:14.142Z,52.58
2022-10-06T11:52:14.195Z,52.47
2022-10-06T11:53:14.132Z,52.73
2022-10-06T11:54:14.103Z,52.81
2022-10-06T11:55:14.104Z,52.87
2022-10-06T11:56:14.104Z,52.57
2022-10-06T11:57:14.091Z,52.73
2022-10-06T11:59:15.061Z,53.52
2022-10-06T12:00:14.034Z,52.67
2022-10-06T12:01:14.033Z,52.27
2022-10-06T12:02:14.083Z,52.45
2022-10-06T12:03:14.102Z,52.48
2022-10-06T12:04:14.025Z,52.65
2022-10-06T12:05:45.854Z,53.16
2022-10-06T12:06:14.971Z,52.22
2022-10-06T12:07:13.964Z,52.16
2022-10-06T12:08:13.964Z,50.67
2022-10-06T12:09:13.961Z,50.25
2022-10-06T12:10:13.946Z,50.86
2022-10-06T12:11:13.931Z,51.61
2022-10-06T12:12:13.914Z,51.92
2022-10-06T12:13:40.021Z,52.49
2022-10-06T12:17:19.216Z,51.99
2022-10-06T12:18:14.838Z,52.42
2022-10-06T12:19:13.858Z,51.65
2022-10-06T12:20:13.825Z,52.12
2022-10-06T12:21:13.804Z,51.71
2022-10-06T12:22:13.796Z,52.05
2022-10-06T12:23:13.789Z,52.41
2022-10-06T12:25:13.790Z,51.67
2022-10-06T12:26:13.749Z,53.11
2022-10-06T12:27:13.741Z,52.90
2022-10-06T12:28:13.724Z,52.12
2022-10-06T12:29:13.718Z,51.69
2022-10-06T12:30:13.720Z,51.89
2022-10-06T12:31:18.115Z,49.66
2022-10-06T12:32:13.678Z,48.61
2022-10-06T12:33:13.668Z,49.95
2022-10-06T12:34:13.669Z,49.68
2022-10-06T12:35:13.680Z,49.88
2022-10-06T12:36:13.649Z,50.02
2022-10-06T12:37:13.640Z,49.80
2022-10-06T12:38:13.618Z,49.77
2022-10-06T12:39:13.761Z,50.28
2022-10-06T12:40:13.609Z,51.38
2022-10-06T12:41:13.571Z,50.83
2022-10-06T12:42:13.558Z,50.52
2022-10-06T12:43:13.565Z,50.56
2022-10-06T12:44:13.557Z,50.46
2022-10-06T12:45:13.520Z,50.30
2022-10-06T12:46:13.584Z,51.05
2022-10-06T12:47:13.561Z,50.77
2022-10-06T12:48:13.517Z,51.06
2022-10-06T12:49:13.506Z,50.73
2022-10-06T12:50:13.470Z,50.57
2022-10-06T12:51:13.483Z,50.28
2022-10-06T12:52:13.439Z,51.27
2022-10-06T12:53:13.441Z,50.43
2022-10-06T12:54:13.466Z,51.00
2022-10-06T12:55:13.421Z,49.90
2022-10-06T12:56:13.455Z,50.17
2022-10-06T12:57:13.398Z,49.36